Time;durP1;ratioP1;P1;durP2;ratioP2;P2;SDS_P1;SDS_P2;PMS_P1;PMS_P2;Temp;Humidity;BMP_temperature;BMP_pressure;BME280_temperature;BME280_humidity;BME280_pressure;Samples;Min_cycle;Max_cycle;Signal;HPM_P1;HPM_P2
2022/09/17 00:01:42;;;;;;;;;;;;;;;15.04;82.82;99368.22;1431998;90;20883;-83
2022/09/17 00:04:09;;;;;;;;;;;;;;;15.06;82.25;99364.03;1424945;90;20251;-81
2022/09/17 00:06:35;;;;;;;;;;;;;;;15.07;81.77;99371.00;1432002;90;20344;-81
2022/09/17 00:09:03;;;;;;;;;;;;;;;15.10;81.84;99378.59;1439540;89;20839;-81
2022/09/17 00:11:32;;;;;;;;;;;;;;;15.13;80.87;99378.18;1436949;90;20296;-82
2022/09/17 00:14:00;;;;;;;;;;;;;;;15.16;79.83;99372.95;1438720;89;20958;-80
2022/09/17 00:16:30;;;;;;;;;;;;;;;15.15;80.08;99377.98;1428663;90;20756;-81
2022/09/17 00:18:56;;;;;;;;;;;;;;;15.15;79.83;99376.14;1423160;90;20409;-83
2022/09/17 00:21:22;;;;;;;;;;;;;;;15.14;79.63;99373.17;1440901;90;20399;-82
2022/09/17 00:23:54;;;;;;;;;;;;;;;15.11;78.58;99375.73;1425965;90;20400;-81
2022/09/17 00:26:20;;;;;;;;;;;;;;;15.12;79.31;99371.22;1428510;90;20860;-81
2022/09/17 00:28:52;;;;;;;;;;;;;;;15.10;79.33;99369.26;1445553;90;20329;-80
2022/09/17 00:31:18;;;;;;;;;;;;;;;15.05;79.58;99365.89;1445705;90;20281;-81
2022/09/17 00:33:44;;;;;;;;;;;;;;;15.02;78.75;99361.48;1428180;90;20296;-83
2022/09/17 00:36:10;;;;;;;;;;;;;;;15.01;78.65;99363.30;1427009;91;20280;-81
2022/09/17 00:38:36;;;;;;;;;;;;;;;15.00;78.31;99361.67;1426119;90;20659;-82
2022/09/17 00:41:03;;;;;;;;;;;;;;;14.99;77.73;99359.19;1444569;89;20330;-83
2022/09/17 00:43:33;;;;;;;;;;;;;;;14.98;78.00;99361.56;1453299;90;20457;-82
2022/09/17 00:45:59;;;;;;;;;;;;;;;14.96;77.62;99359.11;1447187;90;20412;-82
2022/09/17 00:48:25;;;;;;;;;;;;;;;14.95;77.74;99357.97;1432711;89;20340;-82
2022/09/17 00:50:51;;;;;;;;;;;;;;;14.97;77.99;99361.26;1441873;90;20331;-80
2022/09/17 00:53:20;;;;;;;;;;;;;;;14.96;77.32;99355.60;1433970;90;20382;-83
2022/09/17 00:55:49;;;;;;;;;;;;;;;14.94;77.34;99351.02;1441582;90;20442;-82
2022/09/17 00:58:17;;;;;;;;;;;;;;;14.94;78.56;99351.02;1429101;90;20266;-82
2022/09/17 01:00:45;;;;;;;;;;;;;;;14.94;77.99;99353.16;1425840;90;20816;-81
2022/09/17 01:03:11;;;;;;;;;;;;;;;14.93;78.14;99351.49;1444812;90;20805;-82
2022/09/17 01:05:50;;;;;;;;;;;;;;;14.93;78.10;99355.48;1436808;90;20293;-81
2022/09/17 01:08:40;;;;;;;;;;;;;;;14.86;76.25;99364.81;1432367;89;20265;-80
2022/09/17 01:11:27;;;;;;;;;;;;;;;14.86;76.52;99367.47;1425911;91;20258;-79
2022/09/17 01:14:23;;;;;;;;;;;;;;;14.80;75.83;99366.95;1425217;90;20313;-79
2022/09/17 01:17:04;;;;;;;;;;;;;;;14.78;76.76;99362.33;1435501;89;20348;-80
2022/09/17 01:19:50;;;;;;;;;;;;;;;14.78;77.46;99364.98;1428391;90;20859;-81
2022/09/17 01:22:26;;;;;;;;;;;;;;;14.77;77.70;99360.70;1430823;90;20323;-80
2022/09/17 01:25:02;;;;;;;;;;;;;;;14.75;77.68;99361.91;1438615;90;20336;-80
2022/09/17 01:27:38;;;;;;;;;;;;;;;14.74;77.42;99364.27;1435941;90;20440;-80
2022/09/17 01:30:20;;;;;;;;;;;;;;;14.72;77.51;99356.98;1444358;90;20861;-81
2022/09/17 01:32:51;;;;;;;;;;;;;;;14.69;77.86;99365.38;1431568;90;20407;-82
2022/09/17 01:35:23;;;;;;;;;;;;;;;14.64;77.54;99360.64;1446749;90;20233;-82
2022/09/17 01:38:11;;;;;;;;;;;;;;;14.60;77.53;99357.56;1428076;90;20314;-82
2022/09/17 01:40:44;;;;;;;;;;;;;;;14.56;77.52;99360.84;1424419;91;20413;-81
2022/09/17 01:43:13;;;;;;;;;;;;;;;14.53;77.61;99354.07;1427116;90;20391;-83
2022/09/17 01:45:46;;;;;;;;;;;;;;;14.51;78.76;99357.41;1431944;91;20406;-82
2022/09/17 01:48:16;;;;;;;;;;;;;;;14.49;78.02;99362.61;1445288;90;20301;-83
2022/09/17 01:50:52;;;;;;;;;;;;;;;14.49;78.25;99363.95;1441156;89;20829;-82
2022/09/17 01:53:21;;;;;;;;;;;;;;;14.50;78.75;99362.42;1439457;89;20229;-84
2022/09/17 01:55:49;;;;;;;;;;;;;;;14.52;78.43;99363.58;1433163;91;20296;-82
2022/09/17 01:58:31;;;;;;;;;;;;;;;14.53;78.19;99361.22;1427625;90;20364;-81
2022/09/17 02:01:06;;;;;;;;;;;;;;;14.56;78.33;99361.66;1421959;90;20303;-82
2022/09/17 02:03:44;;;;;;;;;;;;;;;14.58;78.52;99365.44;1442002;90;20329;-83
2022/09/17 02:06:14;;;;;;;;;;;;;;;14.60;78.35;99367.40;1443433;90;20369;-82
2022/09/17 02:08:59;;;;;;;;;;;;;;;14.62;78.65;99365.37;1425323;91;20459;-83
2022/09/17 02:11:25;;;;;;;;;;;;;;;14.62;78.39;99363.52;1426061;91;20742;-83
2022/09/17 02:14:00;;;;;;;;;;;;;;;14.63;78.88;99361.67;1440121;90;20300;-83
2022/09/17 02:16:35;;;;;;;;;;;;;;;14.62;79.84;99358.71;1432115;90;20331;-82
2022/09/17 02:19:20;;;;;;;;;;;;;;;14.64;79.11;99351.32;1446539;90;20307;-82
2022/09/17 02:21:58;;;;;;;;;;;;;;;14.64;79.88;99342.00;1440746;90;20303;-79
2022/09/17 02:24:32;;;;;;;;;;;;;;;14.62;79.81;99344.06;1440105;90;20813;-80
2022/09/17 02:27:08;;;;;;;;;;;;;;;14.58;79.71;99344.14;1442449;90;20373;-80
2022/09/17 02:29:40;;;;;;;;;;;;;;;14.56;79.61;99336.88;1428458;91;20750;-82
2022/09/17 02:32:06;;;;;;;;;;;;;;;14.51;79.79;99329.97;1440676;90;20294;-81
2022/09/17 02:34:33;;;;;;;;;;;;;;;14.44;80.12;99326.77;1438253;90;20219;-81
2022/09/17 02:37:00;;;;;;;;;;;;;;;14.40;80.56;99336.16;1432697;91;20377;-81
2022/09/17 02:39:26;;;;;;;;;;;;;;;14.35;80.80;99337.77;1428440;91;20248;-80
2022/09/17 02:42:16;;;;;;;;;;;;;;;14.31;80.84;99335.21;1439953;90;20285;-82
2022/09/17 02:44:54;;;;;;;;;;;;;;;14.28;80.42;99331.62;1450314;90;20264;-81
2022/09/17 02:47:47;;;;;;;;;;;;;;;14.27;80.15;99325.48;1459664;90;20285;-81
2022/09/17 02:50:50;;;;;;;;;;;;;;;14.24;80.56;99327.17;1437531;90;20302;-82
2022/09/17 02:53:37;;;;;;;;;;;;;;;14.22;80.25;99325.25;1427414;91;21089;-81
2022/09/17 02:56:28;;;;;;;;;;;;;;;14.18;80.79;99321.31;1403329;91;20267;-80
2022/09/17 02:59:01;;;;;;;;;;;;;;;14.14;81.41;99323.56;1431974;91;20355;-81
2022/09/17 03:01:39;;;;;;;;;;;;;;;14.11;81.85;99325.80;1440155;90;20293;-81
2022/09/17 03:04:07;;;;;;;;;;;;;;;14.12;80.27;99322.11;1434637;89;20808;-82
2022/09/17 03:06:33;;;;;;;;;;;;;;;14.14;80.93;99325.41;1427698;91;20273;-81
2022/09/17 03:08:58;;;;;;;;;;;;;;;14.18;80.64;99325.31;1427704;91;20303;-81
2022/09/17 03:11:24;;;;;;;;;;;;;;;14.21;80.63;99327.58;1437030;91;20264;-80
2022/09/17 03:13:50;;;;;;;;;;;;;;;14.22;80.68;99327.91;1430695;92;20303;-81
2022/09/17 03:16:16;;;;;;;;;;;;;;;14.25;80.85;99330.17;1449184;89;20312;-81
2022/09/17 03:18:42;;;;;;;;;;;;;;;14.27;79.41;99323.30;1440355;90;20323;-81
2022/09/17 03:21:09;;;;;;;;;;;;;;;14.29;80.40;99323.42;1450087;90;20785;-80
2022/09/17 03:23:35;;;;;;;;;;;;;;;14.33;80.27;99326.02;1444320;90;20800;-80
2022/09/17 03:26:01;;;;;;;;;;;;;;;14.36;81.23;99326.94;1451274;90;20309;-80
2022/09/17 03:28:27;;;;;;;;;;;;;;;14.34;80.92;99319.66;1443634;90;20344;-81
2022/09/17 03:30:52;;;;;;;;;;;;;;;14.35;80.82;99318.62;1447147;90;20293;-80
2022/09/17 03:33:18;;;;;;;;;;;;;;;14.32;81.58;99318.21;1421395;90;20234;-81
2022/09/17 03:35:45;;;;;;;;;;;;;;;14.29;81.60;99311.44;1441534;90;20294;-81
2022/09/17 03:38:11;;;;;;;;;;;;;;;14.28;81.48;99309.00;1429230;90;20326;-83
2022/09/17 03:40:37;;;;;;;;;;;;;;;14.23;81.44;99302.92;1426953;91;20302;-82
2022/09/17 03:43:04;;;;;;;;;;;;;;;14.19;82.04;99299.03;1427928;92;20728;-83
2022/09/17 03:45:31;;;;;;;;;;;;;;;14.16;82.23;99306.08;1422938;91;20333;-82
2022/09/17 03:47:56;;;;;;;;;;;;;;;14.11;82.28;99309.84;1427092;92;20842;-82
2022/09/17 03:50:23;;;;;;;;;;;;;;;14.09;82.13;99311.87;1424918;92;20318;-83
2022/09/17 03:52:49;;;;;;;;;;;;;;;14.06;82.29;99308.27;1427818;91;20274;-82
2022/09/17 03:55:16;;;;;;;;;;;;;;;14.04;82.00;99312.48;1426449;91;20296;-81
2022/09/17 03:57:42;;;;;;;;;;;;;;;14.03;82.98;99317.47;1430183;92;20466;-83
2022/09/17 04:00:11;;;;;;;;;;;;;;;14.00;82.55;99321.34;1428731;91;20363;-81
2022/09/17 04:02:37;;;;;;;;;;;;;;;13.98;82.41;99311.42;1428858;90;20801;-80
2022/09/17 04:05:04;;;;;;;;;;;;;;;13.98;82.25;99310.58;1421514;90;20288;-80
2022/09/17 04:07:29;;;;;;;;;;;;;;;13.97;82.37;99311.61;1431300;91;20323;-81
2022/09/17 04:09:55;;;;;;;;;;;;;;;13.95;82.59;99317.14;1426679;91;20331;-81
2022/09/17 04:12:21;;;;;;;;;;;;;;;13.91;82.98;99307.89;1435102;91;20806;-81
2022/09/17 04:14:47;;;;;;;;;;;;;;;13.89;82.75;99313.91;1435923;90;20234;-81
2022/09/17 04:17:17;;;;;;;;;;;;;;;13.89;82.42;99305.93;1428577;91;20847;-81
2022/09/17 04:19:44;;;;;;;;;;;;;;;13.91;81.95;99307.08;1423948;91;20455;-81
2022/09/17 04:22:09;;;;;;;;;;;;;;;13.93;82.03;99301.88;1437718;90;20368;-81
2022/09/17 04:24:35;;;;;;;;;;;;;;;13.99;82.13;99288.30;1429855;91;20776;-82
2022/09/17 04:27:01;;;;;;;;;;;;;;;14.05;83.06;99292.02;1420716;92;20311;-82
2022/09/17 04:29:27;;;;;;;;;;;;;;;14.09;82.52;99285.27;1434173;91;20344;-81
2022/09/17 04:31:53;;;;;;;;;;;;;;;14.14;82.92;99280.17;1439857;90;20242;-81
2022/09/17 04:34:19;;;;;;;;;;;;;;;14.18;82.27;99276.93;1455930;90;20982;-82
2022/09/17 04:36:45;;;;;;;;;;;;;;;14.22;82.85;99269.36;1449911;89;20256;-82
2022/09/17 04:39:11;;;;;;;;;;;;;;;14.25;82.91;99254.33;1440453;91;20370;-82
2022/09/17 04:41:37;;;;;;;;;;;;;;;14.28;82.82;99245.94;1437383;90;20215;-80
2022/09/17 04:44:03;;;;;;;;;;;;;;;14.28;82.44;99245.13;1428964;92;20325;-81
2022/09/17 04:46:29;;;;;;;;;;;;;;;14.27;82.16;99245.64;1429791;92;20985;-81
2022/09/17 04:48:54;;;;;;;;;;;;;;;14.25;81.98;99249.00;1409303;92;20244;-79
2022/09/17 04:51:20;;;;;;;;;;;;;;;14.22;82.19;99251.55;1424111;92;20839;-80
2022/09/17 04:53:46;;;;;;;;;;;;;;;14.14;82.76;99261.03;1428400;92;20883;-81
2022/09/17 04:56:12;;;;;;;;;;;;;;;14.08;83.26;99258.36;1421976;92;20304;-82
2022/09/17 04:58:38;;;;;;;;;;;;;;;14.05;83.70;99252.11;1421334;92;20332;-80
2022/09/17 05:01:04;;;;;;;;;;;;;;;14.04;83.11;99250.44;1433365;91;20278;-81
2022/09/17 05:03:30;;;;;;;;;;;;;;;14.02;83.15;99248.00;1427015;91;20310;-81
2022/09/17 05:05:56;;;;;;;;;;;;;;;14.02;83.61;99248.00;1446533;91;20227;-80
2022/09/17 05:08:22;;;;;;;;;;;;;;;14.01;84.93;99246.34;1425595;92;20325;-80
2022/09/17 05:10:50;;;;;;;;;;;;;;;13.99;85.04;99235.91;1441836;91;21471;-80
2022/09/17 05:13:16;;;;;;;;;;;;;;;13.98;85.09;99232.11;1436604;92;20310;-80
2022/09/17 05:15:42;;;;;;;;;;;;;;;13.96;84.80;99223.02;1445476;89;20271;-80
2022/09/17 05:18:07;;;;;;;;;;;;;;;13.96;85.37;99212.38;1431354;91;20334;-80
2022/09/17 05:20:33;;;;;;;;;;;;;;;13.97;87.13;99211.86;1431573;92;20273;-81
2022/09/17 05:22:59;;;;;;;;;;;;;;;13.99;86.37;99214.63;1424495;91;20266;-81
2022/09/17 05:25:25;;;;;;;;;;;;;;;13.99;88.09;99233.25;1433940;90;20249;-79
2022/09/17 05:27:52;;;;;;;;;;;;;;;13.98;87.18;99234.28;1436497;91;20359;-80
2022/09/17 05:30:19;;;;;;;;;;;;;;;14.00;87.30;99232.22;1419722;92;20274;-81
2022/09/17 05:32:45;;;;;;;;;;;;;;;14.08;88.02;99236.56;1432293;91;20338;-81
2022/09/17 05:35:11;;;;;;;;;;;;;;;14.17;87.16;99231.88;1432677;90;20302;-80
2022/09/17 05:37:37;;;;;;;;;;;;;;;14.26;86.29;99243.98;1440376;90;20279;-80
2022/09/17 05:40:06;;;;;;;;;;;;;;;14.32;85.48;99248.50;1450619;90;20293;-79
2022/09/17 05:42:32;;;;;;;;;;;;;;;14.31;85.36;99246.87;1455367;90;20300;-81
2022/09/17 05:44:57;;;;;;;;;;;;;;;14.33;85.56;99242.17;1456988;90;20257;-81
2022/09/17 05:47:23;;;;;;;;;;;;;;;14.39;85.94;99248.02;1449552;86;20278;-80
2022/09/17 05:49:49;;;;;;;;;;;;;;;14.43;86.18;99247.91;1445873;90;20881;-80
2022/09/17 05:52:15;;;;;;;;;;;;;;;14.50;85.70;99249.77;1443380;90;20300;-82
2022/09/17 05:54:41;;;;;;;;;;;;;;;14.51;85.90;99254.91;1419885;92;20229;-82
2022/09/17 05:57:07;;;;;;;;;;;;;;;14.55;85.85;99261.48;1421372;92;20340;-80
2022/09/17 05:59:34;;;;;;;;;;;;;;;14.55;86.31;99260.16;1421883;92;20921;-81
2022/09/17 06:01:59;;;;;;;;;;;;;;;14.58;86.14;99269.06;1414147;92;20266;-81
2022/09/17 06:04:25;;;;;;;;;;;;;;;14.61;85.53;99266.52;1421876;92;20287;-82
2022/09/17 06:06:51;;;;;;;;;;;;;;;14.64;85.86;99274.09;1424465;92;20258;-81
2022/09/17 06:09:17;;;;;;;;;;;;;;;14.67;86.34;99271.03;1415317;92;20727;-80
2022/09/17 06:11:43;;;;;;;;;;;;;;;14.70;86.69;99282.61;1417935;92;20355;-81
2022/09/17 06:14:09;;;;;;;;;;;;;;;14.69;88.09;99278.31;1415665;92;20833;-79
2022/09/17 06:16:36;;;;;;;;;;;;;;;14.70;87.14;99271.95;1442346;90;20337;-79
2022/09/17 06:19:03;;;;;;;;;;;;;;;14.73;88.08;99276.06;1423926;92;20325;-81
2022/09/17 06:21:29;;;;;;;;;;;;;;;14.74;88.32;99275.88;1425573;92;20310;-81
2022/09/17 06:23:54;;;;;;;;;;;;;;;14.74;88.72;99267.88;1428175;91;20265;-79
2022/09/17 06:26:20;;;;;;;;;;;;;;;14.77;90.04;99274.13;1425694;91;20297;-81
2022/09/17 06:28:46;;;;;;;;;;;;;;;14.81;89.83;99274.02;1408880;92;20283;-81
2022/09/17 06:31:12;;;;;;;;;;;;;;;14.88;90.21;99266.88;1410538;93;20766;-80
2022/09/17 06:33:38;;;;;;;;;;;;;;;14.97;90.79;99261.35;1417475;92;20372;-81
2022/09/17 06:36:06;;;;;;;;;;;;;;;15.02;90.73;99260.23;1409239;92;20239;-81
2022/09/17 06:38:34;;;;;;;;;;;;;;;15.06;90.35;99268.11;1408245;92;20231;-80
2022/09/17 06:41:01;;;;;;;;;;;;;;;15.10;91.30;99268.84;1420756;93;20298;-80
2022/09/17 06:43:27;;;;;;;;;;;;;;;15.14;90.80;99264.44;1406185;92;20782;-78
2022/09/17 06:45:55;;;;;;;;;;;;;;;15.15;90.31;99273.53;1413472;93;20299;-86
2022/09/17 06:48:21;;;;;;;;;;;;;;;15.18;90.63;99285.12;1395869;93;20760;-88
2022/09/17 06:50:48;;;;;;;;;;;;;;;15.18;90.97;99284.30;1398781;93;20247;-86
2022/09/17 06:53:15;;;;;;;;;;;;;;;15.17;92.04;99286.16;1400597;93;20270;-88
2022/09/17 06:55:41;;;;;;;;;;;;;;;15.12;92.82;99285.94;1406839;93;20870;-88
2022/09/17 06:58:07;;;;;;;;;;;;;;;15.06;92.48;99299.56;1407461;92;20405;-87
2022/09/17 07:00:33;;;;;;;;;;;;;;;15.09;92.64;99300.49;1409519;92;20298;-86
2022/09/17 07:03:00;;;;;;;;;;;;;;;15.13;92.59;99308.89;1421703;93;20257;-88
2022/09/17 07:05:27;;;;;;;;;;;;;;;15.18;93.37;99318.95;1407683;93;20443;-88
2022/09/17 07:07:53;;;;;;;;;;;;;;;15.17;93.27;99319.47;1407762;92;20294;-88
2022/09/17 07:10:22;;;;;;;;;;;;;;;15.22;92.99;99312.17;1405967;92;20749;-88
2022/09/17 07:12:48;;;;;;;;;;;;;;;15.27;92.54;99313.72;1410575;93;20316;-90
2022/09/17 07:15:26;;;;;;;;;;;;;;;15.33;93.02;99305.73;1384640;93;20821;-89
2022/09/17 07:17:52;;;;;;;;;;;;;;;15.43;92.56;99303.98;1404331;92;20243;-90
2022/09/17 07:20:18;;;;;;;;;;;;;;;15.45;92.46;99303.76;1406517;92;20331;-92
2022/09/17 07:22:48;;;;;;;;;;;;;;;15.49;92.50;99315.67;1401211;92;20459;-84
2022/09/17 07:25:15;;;;;;;;;;;;;;;15.47;92.04;99317.71;1396951;92;20367;-88
2022/09/17 07:27:41;;;;;;;;;;;;;;;15.49;91.14;99319.15;1388450;93;20293;-87
2022/09/17 07:30:08;;;;;;;;;;;;;;;15.55;91.43;99313.50;1386812;94;20242;-86
2022/09/17 07:32:35;;;;;;;;;;;;;;;15.60;91.43;99319.05;1385024;94;20858;-90
2022/09/17 07:35:01;;;;;;;;;;;;;;;15.63;91.40;99323.96;1386926;94;20913;-90
2022/09/17 07:37:27;;;;;;;;;;;;;;;15.52;90.75;99321.92;1386482;94;20300;-90
2022/09/17 07:39:53;;;;;;;;;;;;;;;15.50;90.60;99319.97;1389654;94;20315;-90
2022/09/17 07:42:19;;;;;;;;;;;;;;;15.49;91.93;99322.33;1380834;94;20828;-89
2022/09/17 07:44:45;;;;;;;;;;;;;;;15.51;91.17;99316.29;1380785;94;20393;-88
2022/09/17 07:47:11;;;;;;;;;;;;;;;15.53;91.61;99320.88;1402539;92;20867;-89
2022/09/17 07:49:37;;;;;;;;;;;;;;;15.53;90.98;99322.22;1420955;92;20296;-89
2022/09/17 07:52:06;;;;;;;;;;;;;;;15.57;91.65;99319.46;1417789;92;20318;-88
2022/09/17 07:54:33;;;;;;;;;;;;;;;15.61;91.08;99319.34;1407531;92;20332;-90
2022/09/17 07:56:59;;;;;;;;;;;;;;;15.62;90.36;99316.97;1419533;91;21074;-89
2022/09/17 07:59:25;;;;;;;;;;;;;;;15.65;89.74;99309.91;1424802;91;20347;-89
2022/09/17 08:01:51;;;;;;;;;;;;;;;15.64;89.50;99306.92;1427857;91;20790;-88
2022/09/17 08:04:17;;;;;;;;;;;;;;;15.68;89.49;99303.34;1432042;91;20280;-90
2022/09/17 08:06:47;;;;;;;;;;;;;;;15.72;89.85;99298.73;1429708;91;20252;-90
2022/09/17 08:09:11;;;;;;;;;;;;;;;15.74;89.67;99296.69;1426058;90;20277;-90
2022/09/17 08:11:37;;;;;;;;;;;;;;;15.69;89.92;99295.16;1439560;90;20241;-88
2022/09/17 08:14:03;;;;;;;;;;;;;;;15.71;89.05;99291.77;1436886;90;20378;-90
2022/09/17 08:16:46;;;;;;;;;;;;;;;15.73;89.27;99291.03;1426880;91;20243;-91
2022/09/17 08:19:12;;;;;;;;;;;;;;;15.76;89.74;99289.27;1422659;90;20294;-91
2022/09/17 08:21:38;;;;;;;;;;;;;;;15.81;89.80;99290.52;1424053;90;20406;-87
2022/09/17 08:24:04;;;;;;;;;;;;;;;15.81;89.37;99282.51;1416546;91;20295;-89
2022/09/17 08:26:29;;;;;;;;;;;;;;;15.89;89.30;99271.62;1427562;90;20415;-89
2022/09/17 08:28:55;;;;;;;;;;;;;;;15.95;89.05;99278.77;1424081;91;20303;-89
2022/09/17 08:31:25;;;;;;;;;;;;;;;16.02;88.59;99276.89;1423933;90;20275;-89
2022/09/17 08:33:51;;;;;;;;;;;;;;;16.10;88.21;99286.00;1425984;90;20292;-89
2022/09/17 08:36:18;;;;;;;;;;;;;;;16.09;87.82;99283.03;1428165;91;20246;-88
2022/09/17 08:38:45;;;;;;;;;;;;;;;16.12;87.05;99285.28;1412899;93;20246;-88
2022/09/17 08:41:32;;;;;;;;;;;;;;;16.19;87.30;99287.39;1426588;91;20289;-89
2022/09/17 08:44:11;;;;;;;;;;;;;;;16.26;86.30;99280.71;1427649;91;20317;-88
2022/09/17 08:46:49;;;;;;;;;;;;;;;16.27;85.83;99285.53;1426028;91;20444;-90
2022/09/17 08:49:22;;;;;;;;;;;;;;;16.34;86.52;99285.81;1430783;91;20310;-89
2022/09/17 08:51:58;;;;;;;;;;;;;;;16.37;85.25;99288.05;1412547;91;20317;-89
2022/09/17 08:54:43;;;;;;;;;;;;;;;16.40;85.43;99290.30;1407027;91;20461;-87
2022/09/17 08:57:18;;;;;;;;;;;;;;;16.48;85.79;99283.87;1432893;91;20339;-89
2022/09/17 09:00:12;;;;;;;;;;;;;;;16.58;85.53;99276.75;1432448;91;20853;-89
2022/09/17 09:02:57;;;;;;;;;;;;;;;16.63;85.56;99272.40;1427509;91;20362;-88
2022/09/17 09:05:38;;;;;;;;;;;;;;;16.69;85.08;99272.88;1406364;91;20324;-89
2022/09/17 09:08:07;;;;;;;;;;;;;;;16.75;84.50;99276.53;1406554;93;20294;-89
2022/09/17 09:10:40;;;;;;;;;;;;;;;16.79;83.81;99280.95;1418931;91;20920;-88
2022/09/17 09:13:06;;;;;;;;;;;;;;;16.81;83.25;99278.89;1425196;91;20939;-89
2022/09/17 09:15:38;;;;;;;;;;;;;;;16.78;83.24;99277.47;1429762;91;20302;-88
2022/09/17 09:18:19;;;;;;;;;;;;;;;16.77;83.03;99272.33;1427103;91;20897;-89
2022/09/17 09:20:52;;;;;;;;;;;;;;;16.80;83.28;99267.88;1429025;91;20317;-89
2022/09/17 09:23:38;;;;;;;;;;;;;;;16.81;82.21;99272.22;1410060;91;20302;-88
2022/09/17 09:26:19;;;;;;;;;;;;;;;16.78;82.44;99273.45;1417795;91;20375;-89
2022/09/17 09:29:01;;;;;;;;;;;;;;;16.81;82.54;99278.38;1420271;91;20410;-90
2022/09/17 09:31:36;;;;;;;;;;;;;;;16.81;81.33;99279.70;1424617;91;20281;-88
2022/09/17 09:34:03;;;;;;;;;;;;;;;16.84;80.87;99278.45;1424319;91;20528;-88
2022/09/17 09:36:31;;;;;;;;;;;;;;;16.77;80.14;99274.48;1425348;91;20272;-90
2022/09/17 09:39:00;;;;;;;;;;;;;;;16.81;81.08;99281.56;1421673;91;20362;-89
2022/09/17 09:41:41;;;;;;;;;;;;;;;16.85;81.36;99290.25;1420051;91;20339;-87
2022/09/17 09:44:12;;;;;;;;;;;;;;;16.90;80.84;99292.28;1422763;91;20354;-90
2022/09/17 09:46:59;;;;;;;;;;;;;;;16.93;81.09;99287.03;1417594;91;20447;-90
2022/09/17 09:49:47;;;;;;;;;;;;;;;17.00;81.49;99289.94;1403968;91;20376;-88
2022/09/17 09:52:25;;;;;;;;;;;;;;;17.08;81.15;99284.85;1410759;91;20254;-87
2022/09/17 09:55:11;;;;;;;;;;;;;;;17.10;80.00;99284.94;1417541;91;20757;-90
2022/09/17 09:57:47;;;;;;;;;;;;;;;17.14;80.32;99284.79;1436547;91;21157;-88
2022/09/17 10:00:26;;;;;;;;;;;;;;;17.24;80.25;99280.30;1408901;93;20394;-88
2022/09/17 10:03:04;;;;;;;;;;;;;;;17.34;79.91;99279.80;1428268;90;20839;-88
2022/09/17 10:05:31;;;;;;;;;;;;;;;17.43;79.81;99277.14;1402952;91;20375;-88
2022/09/17 10:07:57;;;;;;;;;;;;;;;17.52;79.39;99281.69;1438098;91;21001;-86
2022/09/17 10:10:23;;;;;;;;;;;;;;;17.59;79.29;99285.94;1422633;91;20281;-80
2022/09/17 10:12:53;;;;;;;;;;;;;;;17.63;76.50;99285.50;1428194;91;20339;-80
2022/09/17 10:15:25;;;;;;;;;;;;;;;17.48;76.58;99274.63;1430430;90;20281;-81
2022/09/17 10:18:12;;;;;;;;;;;;;;;17.36;74.90;99275.06;1444106;90;20853;-85
2022/09/17 10:20:50;;;;;;;;;;;;;;;17.51;76.11;99273.38;1452233;89;20330;-90
2022/09/17 10:23:16;;;;;;;;;;;;;;;17.63;75.30;99277.47;1457592;89;20776;-92
2022/09/17 10:25:42;;;;;;;;;;;;;;;17.83;76.65;99278.63;1434295;90;20304;-92
2022/09/17 10:28:41;;;;;;;;;;;;;;;18.03;77.25;99277.36;1438740;90;20309;-91
2022/09/17 10:31:09;;;;;;;;;;;;;;;18.20;75.99;99278.91;1450467;89;20842;-88
2022/09/17 10:33:39;;;;;;;;;;;;;;;18.37;74.24;99277.77;1444671;89;21329;-92
2022/09/17 10:36:09;;;;;;;;;;;;;;;18.51;74.62;99278.94;1424216;91;20396;-91
2022/09/17 10:38:41;;;;;;;;;;;;;;;18.62;73.32;99284.34;1425430;91;20891;-92
2022/09/17 10:41:23;;;;;;;;;;;;;;;18.74;72.95;99282.25;1439518;89;20315;-94
2022/09/17 10:43:49;;;;;;;;;;;;;;;18.77;72.63;99277.25;1430466;90;20281;-92
2022/09/17 10:46:23;;;;;;;;;;;;;;;18.72;70.34;99288.61;1428483;90;20362;-91
2022/09/17 10:49:08;;;;;;;;;;;;;;;18.74;72.01;99280.39;1432011;90;20315;-91
2022/09/17 10:51:34;;;;;;;;;;;;;;;18.73;72.57;99274.71;1434614;90;20421;-90
2022/09/17 10:54:04;;;;;;;;;;;;;;;18.69;72.18;99274.86;1433529;90;20400;-91
2022/09/17 10:56:39;;;;;;;;;;;;;;;18.61;70.13;99273.30;1437354;90;20349;-93
2022/09/17 10:59:31;;;;;;;;;;;;;;;18.52;71.00;99282.72;1435076;90;20901;-91
2022/09/17 11:02:03;;;;;;;;;;;;;;;18.51;72.02;99277.59;1420137;90;20261;-92
2022/09/17 11:04:53;;;;;;;;;;;;;;;18.38;69.04;99282.07;1417220;91;20869;-90
2022/09/17 11:07:49;;;;;;;;;;;;;;;18.33;70.28;99283.30;1420074;91;20368;-92
2022/09/17 11:10:31;;;;;;;;;;;;;;;18.25;70.56;99284.41;1425722;91;20274;-92
2022/09/17 11:13:35;;;;;;;;;;;;;;;18.11;69.80;99278.11;1423223;91;20303;-91
2022/09/17 11:16:25;;;;;;;;;;;;;;;17.84;72.03;99274.41;1427468;91;20402;-90
2022/09/17 11:18:55;;;;;;;;;;;;;;;17.67;73.83;99267.45;1413947;91;20358;-90
2022/09/17 11:21:27;;;;;;;;;;;;;;;17.43;74.84;99267.77;1416383;91;20957;-91
2022/09/17 11:24:31;;;;;;;;;;;;;;;17.33;76.51;99272.30;1414925;91;20405;-89
2022/09/17 11:27:06;;;;;;;;;;;;;;;17.13;77.17;99264.45;1424580;91;20303;-89
2022/09/17 11:30:02;;;;;;;;;;;;;;;17.00;78.34;99261.87;1430980;91;20392;-89
2022/09/17 11:32:53;;;;;;;;;;;;;;;16.81;79.21;99268.20;1434637;91;20359;-90
2022/09/17 11:35:32;;;;;;;;;;;;;;;16.53;81.38;99268.03;1433430;91;20229;-93
2022/09/17 11:38:04;;;;;;;;;;;;;;;16.32;84.14;99273.19;1426980;91;20252;-91
2022/09/17 11:40:40;;;;;;;;;;;;;;;15.92;87.37;99268.00;1434802;91;20847;-92
2022/09/17 11:43:27;;;;;;;;;;;;;;;15.82;91.83;99260.94;1434458;91;20882;-93
2022/09/17 11:46:11;;;;;;;;;;;;;;;15.66;93.47;99270.72;1427764;91;20912;-90
2022/09/17 11:48:45;;;;;;;;;;;;;;;15.52;95.69;99271.25;1426533;91;20788;-90
2022/09/17 11:51:27;;;;;;;;;;;;;;;15.41;95.65;99263.88;1426484;91;20384;-90
2022/09/17 11:53:56;;;;;;;;;;;;;;;15.32;97.77;99256.09;1421198;91;20871;-87
2022/09/17 11:56:26;;;;;;;;;;;;;;;15.23;100.00;99256.02;1423621;91;20407;-87
2022/09/17 11:59:01;;;;;;;;;;;;;;;15.20;99.95;99262.27;1426754;91;20413;-86
2022/09/17 12:01:35;;;;;;;;;;;;;;;15.22;100.00;99259.71;1421994;91;20388;-85
2022/09/17 12:04:39;;;;;;;;;;;;;;;15.27;100.00;99266.55;1421686;90;20332;-84
2022/09/17 12:07:09;;;;;;;;;;;;;;;15.32;100.00;99261.43;1426670;90;20303;-84
2022/09/17 12:09:36;;;;;;;;;;;;;;;15.37;100.00;99262.16;1434500;90;20288;-87
2022/09/17 12:12:08;;;;;;;;;;;;;;;15.43;100.00;99260.51;1382514;91;20787;-89
2022/09/17 12:14:44;;;;;;;;;;;;;;;15.42;100.00;99261.52;1410201;91;20280;-89
2022/09/17 12:17:13;;;;;;;;;;;;;;;15.44;100.00;99242.14;1431067;90;20398;-86
2022/09/17 12:19:46;;;;;;;;;;;;;;;15.46;100.00;99233.43;1417000;91;20309;-87
2022/09/17 12:22:17;;;;;;;;;;;;;;;15.47;100.00;99227.05;1420913;91;20370;-89
2022/09/17 12:24:44;;;;;;;;;;;;;;;15.46;100.00;99228.09;1413983;91;20310;-91
2022/09/17 12:27:34;;;;;;;;;;;;;;;15.53;100.00;99222.22;1407038;91;20824;-88
2022/09/17 12:30:06;;;;;;;;;;;;;;;15.60;99.95;99220.38;1414606;91;20303;-89
2022/09/17 12:32:56;;;;;;;;;;;;;;;15.67;99.66;99218.48;1417857;91;20298;-79
2022/09/17 12:35:28;;;;;;;;;;;;;;;15.73;99.61;99215.00;1418736;91;20280;-79
2022/09/17 12:38:30;;;;;;;;;;;;;;;15.83;99.49;99209.77;1412522;90;20499;-84
2022/09/17 12:41:09;;;;;;;;;;;;;;;15.96;100.00;99204.35;1399777;93;20409;-83
2022/09/17 12:44:06;;;;;;;;;;;;;;;16.06;99.35;99198.06;1448782;88;20318;-84
2022/09/17 12:46:52;;;;;;;;;;;;;;;16.16;98.96;99196.25;1464907;88;20837;-84
2022/09/17 12:49:31;;;;;;;;;;;;;;;16.23;98.78;99193.05;1470116;88;20747;-87
2022/09/17 12:52:20;;;;;;;;;;;;;;;16.27;98.91;99181.41;1459758;88;20528;-84
2022/09/17 12:54:58;;;;;;;;;;;;;;;16.30;97.47;99172.45;1483535;87;20911;-86
2022/09/17 12:58:02;;;;;;;;;;;;;;;16.35;97.21;99163.81;1473753;87;20555;-82
2022/09/17 13:00:28;;;;;;;;;;;;;;;16.43;98.77;99154.20;1473791;88;20398;-85
2022/09/17 13:03:13;;;;;;;;;;;;;;;16.49;97.58;99153.33;1473351;88;20286;-84
2022/09/17 13:05:59;;;;;;;;;;;;;;;16.54;97.26;99145.47;1469296;88;20827;-84
2022/09/17 13:08:42;;;;;;;;;;;;;;;16.54;97.23;99129.44;1474357;88;20324;-85
2022/09/17 13:11:47;;;;;;;;;;;;;;;16.43;97.76;99116.82;1468498;88;20295;-85